LICR

Reggio Calabria Airport

Airport
ICAO code
LICR
IATA Code
REG
Summary
ICAO Region
EUR
ICAO Territory
Location

Reggio, Calabria

Serving
Regio
Elevation
96 ft
Coordinates
38° 4' 22" N , 15° 38' 55" E
KCC
Metar
LICR 201550Z AUTO 36015KT 330V030 9999 NCD 31/20 Q1009

Reggio di Calabria "Tito Minniti" Airport, also known as Aeroporto dello Stretto (Airport of the Strait) is an airport located near Reggio, in southern Calabria, Italy. It serves mainly the Province of Reggio and the Province of Messina, and partially the Province of Vibo Valentia; more than 1,200,000 people.

Climatology

Warm mediterranean climate (Köppen climate classification Csa)

Runways

Designator Length Width Surface Rops
11/29 1699 45 ASP Yes/Yes
15/33 1996 45 ASP Yes/Yes

Airport map

Aerial View

SKYbrary Partners:

Safety knowledge contributed by: